createdAt,value
2018-12-09T00:02:03.156Z,1.17
2018-12-09T00:04:31.626Z,1.23
2018-12-09T00:07:00.139Z,1.03
2018-12-09T00:09:28.561Z,0.50
2018-12-09T00:11:56.947Z,0.50
2018-12-09T00:14:25.440Z,0.50
2018-12-09T00:16:58.666Z,0.37
2018-12-09T00:19:28.055Z,0.60
2018-12-09T00:21:58.374Z,0.63
2018-12-09T00:24:30.340Z,1.57
2018-12-09T00:27:03.179Z,0.87
2018-12-09T00:29:35.519Z,0.70
2018-12-09T00:32:06.166Z,1.23
2018-12-09T00:34:38.747Z,0.57
2018-12-09T00:37:11.595Z,0.57
2018-12-09T00:39:40.548Z,1.30
2018-12-09T00:42:12.902Z,0.40
2018-12-09T00:44:42.247Z,1.33
2018-12-09T00:47:10.631Z,1.23
2018-12-09T00:49:40.051Z,0.50
2018-12-09T00:52:08.539Z,0.60
2018-12-09T00:54:36.872Z,0.40
2018-12-09T00:57:07.234Z,0.50
2018-12-09T00:59:39.615Z,0.50
2018-12-09T01:02:09.896Z,1.27
2018-12-09T01:04:39.314Z,1.23
2018-12-09T01:07:09.860Z,0.60
2018-12-09T01:09:38.232Z,0.70
2018-12-09T01:12:10.741Z,0.37
2018-12-09T01:14:39.061Z,0.40
2018-12-09T01:17:08.401Z,0.53
2018-12-09T01:19:37.812Z,0.53
2018-12-09T01:22:11.002Z,0.40
2018-12-09T01:24:44.387Z,0.83
2018-12-09T01:27:12.928Z,0.40
2018-12-09T01:29:42.369Z,0.43
2018-12-09T01:32:11.790Z,0.37
2018-12-09T01:34:40.144Z,0.77
2018-12-09T01:37:09.602Z,1.13
2018-12-09T01:39:38.069Z,0.53
2018-12-09T01:42:07.439Z,1.33
2018-12-09T01:44:36.095Z,1.33
2018-12-09T01:47:04.567Z,0.93
2018-12-09T01:49:33.112Z,1.90
2018-12-09T01:52:02.694Z,2.17
2018-12-09T01:54:33.014Z,1.93
2018-12-09T01:57:02.230Z,1.67
2018-12-09T01:59:34.454Z,2.53
2018-12-09T02:02:02.977Z,2.47
2018-12-09T02:04:31.489Z,2.80
2018-12-09T02:06:59.933Z,4.43
2018-12-09T02:09:30.329Z,3.30
2018-12-09T02:11:59.793Z,2.10
2018-12-09T02:14:28.539Z,2.60
2018-12-09T02:16:57.043Z,3.70
2018-12-09T02:19:26.619Z,4.60
2018-12-09T02:21:56.074Z,2.93
2018-12-09T02:24:24.919Z,2.70
2018-12-09T02:26:53.411Z,2.40
2018-12-09T02:29:21.804Z,1.97
2018-12-09T02:31:50.188Z,3.03
2018-12-09T02:34:18.564Z,4.23
2018-12-09T02:36:47.167Z,3.67
2018-12-09T02:39:15.521Z,3.07
2018-12-09T02:41:44.092Z,3.47
2018-12-09T02:44:12.508Z,4.97
2018-12-09T02:46:40.854Z,3.60
2018-12-09T02:49:09.359Z,5.50
2018-12-09T02:51:37.821Z,3.27
2018-12-09T02:54:07.518Z,5.50
2018-12-09T02:56:36.334Z,3.60
2018-12-09T02:59:05.186Z,4.43
2018-12-09T03:01:34.804Z,4.17
2018-12-09T03:04:03.529Z,5.43
2018-12-09T03:06:31.848Z,4.30
2018-12-09T03:09:00.394Z,4.57
2018-12-09T03:11:28.908Z,5.43
2018-12-09T03:13:57.341Z,4.53
2018-12-09T03:16:25.712Z,6.57
2018-12-09T03:18:54.626Z,5.03
2018-12-09T03:21:23.754Z,4.00
2018-12-09T03:23:52.157Z,5.73
2018-12-09T03:26:20.639Z,7.00
2018-12-09T03:28:49.020Z,4.90
2018-12-09T03:31:17.375Z,8.40
2018-12-09T03:33:45.817Z,2.63
2018-12-09T03:36:14.159Z,3.27
2018-12-09T03:38:42.559Z,3.30
2018-12-09T03:41:11.014Z,4.43
2018-12-09T03:43:39.429Z,3.57
2018-12-09T03:46:08.927Z,3.87
2018-12-09T03:48:37.387Z,4.20
2018-12-09T03:51:06.806Z,3.23
2018-12-09T03:53:35.286Z,5.33
2018-12-09T03:56:03.727Z,3.80
2018-12-09T03:58:33.049Z,6.47
2018-12-09T04:01:01.505Z,3.97
2018-12-09T04:03:29.958Z,4.03
2018-12-09T04:05:58.376Z,5.37
2018-12-09T04:08:26.861Z,6.83
2018-12-09T04:10:55.247Z,3.57
2018-12-09T04:13:23.751Z,3.03
2018-12-09T04:15:52.273Z,2.37
2018-12-09T04:18:20.662Z,5.43
2018-12-09T04:20:49.011Z,3.47
2018-12-09T04:23:19.930Z,3.77
2018-12-09T04:25:48.814Z,3.43
2018-12-09T04:28:18.175Z,2.90
2018-12-09T04:30:46.562Z,3.40
2018-12-09T04:33:14.896Z,2.80
2018-12-09T04:35:43.287Z,1.67
2018-12-09T04:38:12.498Z,3.57
2018-12-09T04:40:40.946Z,2.67
2018-12-09T04:43:09.358Z,2.17
2018-12-09T04:45:38.812Z,2.43
2018-12-09T04:48:07.265Z,2.53
2018-12-09T04:50:35.993Z,2.67
2018-12-09T04:53:04.429Z,5.60
2018-12-09T04:55:33.815Z,2.00
2018-12-09T04:58:02.287Z,2.23
2018-12-09T05:00:42.096Z,4.90
2018-12-09T05:03:10.529Z,2.13
2018-12-09T05:05:39.019Z,2.90
2018-12-09T05:08:07.506Z,3.90
2018-12-09T05:10:35.844Z,2.67
2018-12-09T05:13:04.283Z,3.57
2018-12-09T05:15:32.713Z,4.30
2018-12-09T05:18:01.119Z,3.40
2018-12-09T05:20:29.560Z,3.67
2018-12-09T05:22:58.155Z,5.27
2018-12-09T05:25:26.591Z,5.43
2018-12-09T05:27:54.913Z,5.90
2018-12-09T05:30:23.637Z,3.80
2018-12-09T05:32:51.990Z,4.73
2018-12-09T05:35:20.784Z,4.50
2018-12-09T05:37:50.875Z,6.40
2018-12-09T05:40:19.384Z,3.90
2018-12-09T05:42:48.139Z,3.93
2018-12-09T05:45:16.462Z,5.77
2018-12-09T05:47:44.906Z,2.53
2018-12-09T05:50:13.302Z,5.33
2018-12-09T05:52:43.190Z,4.30
2018-12-09T05:55:11.619Z,4.03
2018-12-09T05:57:39.953Z,4.97
2018-12-09T06:00:08.581Z,5.57
2018-12-09T06:02:55.732Z,7.57
2018-12-09T06:05:24.392Z,4.63
2018-12-09T06:07:53.048Z,4.47
2018-12-09T06:10:21.421Z,7.67
2018-12-09T06:12:50.115Z,5.13
2018-12-09T06:15:18.645Z,7.40
2018-12-09T06:17:47.076Z,6.00
2018-12-09T06:20:15.474Z,8.43
2018-12-09T06:22:44.130Z,7.90
2018-12-09T06:25:12.778Z,10.23
2018-12-09T06:27:41.215Z,4.03
2018-12-09T06:30:10.970Z,7.23
2018-12-09T06:32:39.644Z,8.00
2018-12-09T06:35:08.738Z,5.70
2018-12-09T06:37:37.068Z,5.03
2018-12-09T06:40:06.788Z,5.90
2018-12-09T06:42:35.465Z,5.27
2018-12-09T06:45:04.833Z,5.67
2018-12-09T06:47:34.278Z,8.23
2018-12-09T06:50:03.315Z,4.73
2018-12-09T06:52:31.617Z,4.53
2018-12-09T06:55:00.034Z,3.30
2018-12-09T06:57:28.434Z,5.30
2018-12-09T06:59:57.138Z,2.87
2018-12-09T07:02:25.548Z,5.17
2018-12-09T07:04:53.825Z,3.57
2018-12-09T07:07:22.609Z,2.47
2018-12-09T07:09:51.034Z,3.97
2018-12-09T07:12:19.547Z,5.30
2018-12-09T07:14:48.025Z,3.87
2018-12-09T07:17:16.443Z,3.20
2018-12-09T07:19:45.161Z,4.83
2018-12-09T07:22:13.546Z,5.17
2018-12-09T07:24:41.966Z,4.80
2018-12-09T07:27:10.284Z,4.43
2018-12-09T07:29:38.676Z,3.00
2018-12-09T07:32:07.362Z,4.57
2018-12-09T07:34:35.991Z,4.27
2018-12-09T07:37:04.434Z,5.37
2018-12-09T07:39:32.914Z,6.20
2018-12-09T07:42:01.331Z,4.67
2018-12-09T07:44:29.721Z,6.37
2018-12-09T07:46:58.057Z,6.57
2018-12-09T07:49:26.402Z,5.87
2018-12-09T07:51:54.828Z,5.40
2018-12-09T07:54:23.165Z,5.33
2018-12-09T07:56:51.677Z,6.47
2018-12-09T07:59:20.133Z,5.63
2018-12-09T08:01:48.518Z,5.33
2018-12-09T08:04:17.018Z,4.37
2018-12-09T08:06:45.930Z,4.57
2018-12-09T08:09:14.277Z,6.77
2018-12-09T08:11:44.309Z,4.77
2018-12-09T08:14:13.942Z,5.67
2018-12-09T08:16:42.314Z,5.07
2018-12-09T08:19:10.795Z,6.87
2018-12-09T08:21:39.184Z,4.50
2018-12-09T08:24:08.435Z,11.57
2018-12-09T08:26:36.840Z,5.27
2018-12-09T08:29:06.878Z,6.33
2018-12-09T08:31:35.780Z,4.87
2018-12-09T08:34:06.728Z,5.53
2018-12-09T08:36:35.330Z,6.03
2018-12-09T08:39:05.217Z,4.97
2018-12-09T08:41:33.581Z,4.70
2018-12-09T08:44:04.681Z,4.10
2018-12-09T08:46:33.063Z,6.30
2018-12-09T08:49:16.367Z,5.97
2018-12-09T08:51:45.788Z,8.73
2018-12-09T08:54:14.205Z,5.60
2018-12-09T08:56:42.526Z,4.40
2018-12-09T08:59:14.086Z,5.30
2018-12-09T09:01:42.560Z,6.87
2018-12-09T09:04:10.960Z,4.23
2018-12-09T09:06:40.479Z,3.37
2018-12-09T09:09:08.841Z,4.47
2018-12-09T09:11:38.038Z,4.07
2018-12-09T09:14:06.552Z,8.30
2018-12-09T09:16:36.108Z,6.10
2018-12-09T09:19:06.520Z,4.00
2018-12-09T09:21:34.889Z,3.43
2018-12-09T09:24:03.317Z,6.50
2018-12-09T09:26:33.856Z,3.80
2018-12-09T09:29:02.272Z,4.77
2018-12-09T09:31:30.642Z,6.20
2018-12-09T09:34:00.482Z,5.63
2018-12-09T09:36:30.249Z,4.03
2018-12-09T09:38:58.622Z,5.20
2018-12-09T09:41:27.022Z,3.10
2018-12-09T09:43:55.381Z,4.27
2018-12-09T09:46:23.824Z,4.13
2018-12-09T09:48:52.573Z,3.77
2018-12-09T09:51:20.957Z,3.20
2018-12-09T09:53:49.297Z,6.20
2018-12-09T09:56:17.673Z,3.30
2018-12-09T09:58:46.712Z,5.03
2018-12-09T10:01:15.126Z,4.83
2018-12-09T10:03:43.614Z,3.50
2018-12-09T10:06:11.951Z,4.03
2018-12-09T10:08:40.287Z,5.70
2018-12-09T10:11:08.710Z,7.97
2018-12-09T10:13:37.138Z,3.67
2018-12-09T10:16:05.728Z,3.47
2018-12-09T10:18:34.123Z,3.57
2018-12-09T10:21:02.577Z,3.27
2018-12-09T10:23:30.974Z,3.57
2018-12-09T10:25:59.509Z,2.97
2018-12-09T10:28:27.878Z,3.60
2018-12-09T10:30:56.266Z,1.73
2018-12-09T10:33:24.657Z,3.73
2018-12-09T10:35:53.084Z,3.47
2018-12-09T10:38:21.619Z,5.60
2018-12-09T10:40:50.046Z,4.37
2018-12-09T10:43:18.464Z,3.57
2018-12-09T10:45:46.944Z,3.60
2018-12-09T10:48:15.303Z,4.17
2018-12-09T10:50:43.701Z,5.17
2018-12-09T10:53:12.042Z,3.43
2018-12-09T10:55:40.446Z,5.43
2018-12-09T10:58:08.931Z,6.30
2018-12-09T11:00:42.745Z,3.57
2018-12-09T11:03:11.167Z,5.93
2018-12-09T11:05:39.585Z,2.83
2018-12-09T11:08:07.979Z,91.80
2018-12-09T11:10:36.370Z,224.07
2018-12-09T11:13:04.781Z,166.33
2018-12-09T11:15:33.193Z,51.23
2018-12-09T11:18:01.615Z,9.93
2018-12-09T11:20:30.026Z,7.77
2018-12-09T11:22:58.457Z,4.03
2018-12-09T11:25:26.809Z,4.00
2018-12-09T11:27:55.132Z,4.17
2018-12-09T11:30:23.505Z,4.63
2018-12-09T11:32:51.813Z,6.77
2018-12-09T11:35:20.299Z,4.77
2018-12-09T11:37:48.745Z,4.77
2018-12-09T11:40:17.593Z,4.40
2018-12-09T11:42:45.930Z,5.40
2018-12-09T11:45:14.382Z,3.90
2018-12-09T11:47:42.752Z,4.40
2018-12-09T11:50:11.054Z,4.33
2018-12-09T11:52:39.366Z,2.73
2018-12-09T11:55:07.992Z,2.93
2018-12-09T11:57:37.788Z,4.73
2018-12-09T12:00:11.125Z,3.57
2018-12-09T12:02:39.586Z,2.00
2018-12-09T12:05:08.377Z,4.67
2018-12-09T12:07:36.710Z,7.00
2018-12-09T12:10:06.436Z,3.23
2018-12-09T12:12:34.893Z,3.97
2018-12-09T12:15:04.713Z,3.63
2018-12-09T12:17:33.133Z,3.50
2018-12-09T12:20:01.495Z,2.77
2018-12-09T12:22:29.887Z,3.07
2018-12-09T12:24:58.235Z,5.20
2018-12-09T12:27:28.007Z,3.80
2018-12-09T12:29:56.350Z,4.27
2018-12-09T12:32:24.681Z,3.47
2018-12-09T12:34:53.075Z,5.67
2018-12-09T12:37:21.448Z,4.43
2018-12-09T12:39:51.319Z,4.83
2018-12-09T12:42:19.802Z,4.40
2018-12-09T12:44:48.274Z,5.70
2018-12-09T12:47:16.633Z,5.97
2018-12-09T12:49:45.378Z,11.70
2018-12-09T12:52:18.049Z,5.17
2018-12-09T12:54:57.142Z,4.83
2018-12-09T12:57:25.709Z,4.03
2018-12-09T12:59:56.361Z,4.30
2018-12-09T13:02:31.346Z,4.43
2018-12-09T13:05:00.826Z,4.10
2018-12-09T13:07:29.137Z,4.80
2018-12-09T13:10:04.741Z,5.20
2018-12-09T13:12:43.754Z,3.73
2018-12-09T13:15:22.946Z,3.03
2018-12-09T13:20:48.994Z,5.13
2018-12-09T13:23:23.684Z,6.30
2018-12-09T13:25:57.228Z,4.47
2018-12-09T13:28:26.681Z,4.73
2018-12-09T13:34:01.470Z,4.37
2018-12-09T13:36:42.158Z,5.87
2018-12-09T13:39:18.653Z,5.13
2018-12-09T13:41:55.638Z,5.37
2018-12-09T13:44:25.022Z,5.73
2018-12-09T13:46:55.448Z,5.57
2018-12-09T13:49:46.725Z,5.53
2018-12-09T13:52:15.138Z,6.33
2018-12-09T13:54:43.494Z,4.30
2018-12-09T13:57:11.887Z,8.23
2018-12-09T13:59:41.313Z,5.40
2018-12-09T14:02:10.278Z,5.80
2018-12-09T14:04:38.669Z,4.53
2018-12-09T14:07:07.155Z,4.90
2018-12-09T14:09:35.552Z,4.53
2018-12-09T14:12:03.935Z,4.50
2018-12-09T14:14:32.567Z,4.43
2018-12-09T14:17:01.085Z,5.93
2018-12-09T14:19:29.455Z,5.00
2018-12-09T14:21:57.851Z,4.30
2018-12-09T14:24:26.298Z,5.43
2018-12-09T14:26:54.698Z,4.67
2018-12-09T14:29:23.187Z,4.33
2018-12-09T14:31:51.898Z,4.00
2018-12-09T14:34:20.602Z,2.87
2018-12-09T14:36:48.925Z,4.60
2018-12-09T14:39:17.363Z,7.40
2018-12-09T14:41:46.834Z,5.63
2018-12-09T14:44:15.243Z,3.40
2018-12-09T14:46:44.714Z,4.47
2018-12-09T14:49:13.103Z,4.97
2018-12-09T14:51:45.563Z,4.30
2018-12-09T14:54:16.005Z,5.67
2018-12-09T14:56:46.414Z,5.73
2018-12-09T14:59:27.170Z,8.63
2018-12-09T15:01:59.498Z,4.47
2018-12-09T15:04:33.463Z,5.53
2018-12-09T15:07:03.994Z,4.10
2018-12-09T15:09:36.499Z,6.83
2018-12-09T15:12:04.807Z,4.10
2018-12-09T15:14:35.162Z,4.93
2018-12-09T15:19:56.203Z,3.33
2018-12-09T15:22:26.548Z,4.03
2018-12-09T15:25:05.255Z,4.63
2018-12-09T15:27:43.791Z,2.20
2018-12-09T15:33:03.668Z,2.10
2018-12-09T15:35:33.054Z,3.87
2018-12-09T15:38:03.567Z,5.23
2018-12-09T15:43:26.671Z,3.27
2018-12-09T15:45:57.174Z,3.03
2018-12-09T15:48:26.492Z,3.83
2018-12-09T15:50:59.460Z,2.20
2018-12-09T15:53:27.913Z,1.63
2018-12-09T15:55:56.317Z,2.23
2018-12-09T15:58:26.223Z,3.23
2018-12-09T16:00:57.164Z,2.87
2018-12-09T16:03:25.648Z,2.67
2018-12-09T16:05:54.095Z,1.87
2018-12-09T16:08:22.481Z,3.20
2018-12-09T16:10:52.319Z,3.50
2018-12-09T16:13:20.758Z,3.03
2018-12-09T16:15:49.458Z,3.73
2018-12-09T16:18:17.854Z,1.90
2018-12-09T16:20:46.207Z,2.30
2018-12-09T16:23:15.111Z,3.10
2018-12-09T16:25:43.505Z,3.77
2018-12-09T16:28:11.918Z,2.47
2018-12-09T16:30:40.348Z,3.30
2018-12-09T16:33:08.791Z,2.20
2018-12-09T16:35:37.207Z,3.13
2018-12-09T16:38:05.595Z,4.70
2018-12-09T16:40:34.515Z,1.90
2018-12-09T16:43:03.918Z,3.63
2018-12-09T16:45:32.371Z,3.00
2018-12-09T16:48:01.819Z,2.20
2018-12-09T16:50:30.291Z,1.50
2018-12-09T16:53:08.161Z,2.73
2018-12-09T16:55:36.608Z,1.90
2018-12-09T16:58:04.964Z,2.20
2018-12-09T17:00:34.367Z,3.20
2018-12-09T17:03:03.989Z,4.07
2018-12-09T17:05:33.930Z,3.50
2018-12-09T17:08:02.376Z,5.10
2018-12-09T17:10:30.776Z,5.70
2018-12-09T17:12:59.142Z,5.63
2018-12-09T17:15:27.527Z,3.73
2018-12-09T17:17:55.979Z,4.57
2018-12-09T17:20:24.405Z,2.93
2018-12-09T17:22:52.762Z,2.57
2018-12-09T17:25:21.226Z,2.67
2018-12-09T17:27:49.683Z,2.87
2018-12-09T17:30:18.158Z,2.00
2018-12-09T17:32:47.665Z,3.37
2018-12-09T17:35:16.303Z,5.63
2018-12-09T17:37:44.830Z,3.17
2018-12-09T17:40:13.280Z,2.20
2018-12-09T17:42:41.659Z,3.70
2018-12-09T17:45:10.115Z,1.90
2018-12-09T17:47:38.557Z,1.80
2018-12-09T17:50:07.770Z,1.47
2018-12-09T17:52:36.237Z,1.30
2018-12-09T17:55:04.742Z,2.00
2018-12-09T17:57:33.265Z,3.17
2018-12-09T18:00:01.617Z,3.33
2018-12-09T18:02:31.048Z,2.23
2018-12-09T18:04:59.495Z,2.33
2018-12-09T18:07:27.978Z,1.93
2018-12-09T18:09:56.435Z,2.70
2018-12-09T18:12:24.922Z,2.40
2018-12-09T18:14:53.350Z,3.20
2018-12-09T18:17:23.197Z,2.27
2018-12-09T18:19:51.619Z,2.67
2018-12-09T18:22:21.398Z,9.53
2018-12-09T18:24:49.809Z,13.07
2018-12-09T18:27:18.357Z,4.53
2018-12-09T18:29:46.782Z,2.73
2018-12-09T18:32:16.903Z,1.97
2018-12-09T18:34:45.278Z,1.70
2018-12-09T18:37:13.644Z,3.33
2018-12-09T18:39:42.291Z,2.47
2018-12-09T18:42:10.685Z,2.77
2018-12-09T18:44:39.188Z,2.30
2018-12-09T18:47:07.691Z,3.40
2018-12-09T18:49:37.488Z,2.50
2018-12-09T18:52:06.089Z,3.70
2018-12-09T18:54:34.453Z,2.20
2018-12-09T18:57:03.012Z,2.43
2018-12-09T18:59:32.635Z,3.00
2018-12-09T19:02:01.181Z,2.87
2018-12-09T19:04:41.381Z,3.00
2018-12-09T19:07:10.786Z,2.23
2018-12-09T19:09:39.160Z,1.40
2018-12-09T19:12:07.706Z,2.17
2018-12-09T19:14:36.137Z,1.40
2018-12-09T19:17:09.550Z,2.07
2018-12-09T19:19:38.918Z,1.43
2018-12-09T19:22:07.322Z,1.83
2018-12-09T19:24:36.738Z,0.93
2018-12-09T19:27:06.118Z,1.20
2018-12-09T19:29:34.646Z,2.00
2018-12-09T19:32:03.445Z,1.70
2018-12-09T19:34:31.762Z,3.47
2018-12-09T19:37:00.163Z,1.40
2018-12-09T19:39:28.549Z,1.67
2018-12-09T19:41:58.246Z,2.47
2018-12-09T19:44:26.608Z,2.30
2018-12-09T19:46:55.001Z,4.10
2018-12-09T19:49:23.382Z,1.30
2018-12-09T19:51:51.863Z,2.37
2018-12-09T19:54:20.392Z,2.27
2018-12-09T19:56:49.060Z,2.60
2018-12-09T19:59:18.413Z,3.53
2018-12-09T20:01:48.047Z,2.13
2018-12-09T20:04:16.410Z,1.70
2018-12-09T20:06:48.908Z,3.23
2018-12-09T20:09:17.246Z,4.63
2018-12-09T20:11:45.715Z,2.70
2018-12-09T20:14:14.145Z,3.13
2018-12-09T20:16:42.498Z,2.40
2018-12-09T20:19:11.186Z,5.17
2018-12-09T20:21:40.582Z,2.43
2018-12-09T20:24:12.466Z,2.00
2018-12-09T20:26:41.852Z,2.20
2018-12-09T20:29:10.360Z,3.47
2018-12-09T20:31:38.829Z,2.50
2018-12-09T20:34:07.202Z,2.00
2018-12-09T20:36:36.602Z,2.57
2018-12-09T20:39:07.225Z,3.27
2018-12-09T20:41:35.713Z,2.67
2018-12-09T20:44:04.145Z,3.20
2018-12-09T20:46:34.607Z,2.43
2018-12-09T20:49:03.407Z,2.90
2018-12-09T20:51:32.954Z,3.40
2018-12-09T20:54:01.284Z,3.60
2018-12-09T20:56:29.697Z,3.17
2018-12-09T20:58:58.043Z,4.37
2018-12-09T21:01:28.496Z,2.53
2018-12-09T21:03:57.659Z,3.90
2018-12-09T21:06:28.927Z,5.50
2018-12-09T21:08:57.361Z,3.13
2018-12-09T21:11:26.489Z,4.07
2018-12-09T21:13:56.213Z,2.50
2018-12-09T21:16:25.730Z,5.07
2018-12-09T21:18:55.188Z,2.53
2018-12-09T21:21:24.967Z,3.67
2018-12-09T21:23:53.291Z,3.27
2018-12-09T21:26:22.953Z,3.70
2018-12-09T21:28:51.306Z,4.13
2018-12-09T21:31:21.802Z,3.43
2018-12-09T21:33:50.250Z,3.77
2018-12-09T21:36:19.625Z,2.83
2018-12-09T21:38:48.101Z,2.40
2018-12-09T21:41:17.497Z,2.87
2018-12-09T21:43:48.018Z,4.03
2018-12-09T21:46:17.505Z,3.67
2018-12-09T21:48:45.923Z,4.07
2018-12-09T21:51:15.351Z,3.20
2018-12-09T21:53:43.821Z,7.37
2018-12-09T21:56:14.218Z,3.17
2018-12-09T21:58:42.631Z,7.57
2018-12-09T22:01:12.047Z,4.50
2018-12-09T22:03:51.131Z,3.43
2018-12-09T22:06:19.537Z,3.87
2018-12-09T22:08:49.928Z,3.07
2018-12-09T22:11:19.270Z,5.13
2018-12-09T22:13:47.771Z,2.60
2018-12-09T22:16:16.121Z,2.73
2018-12-09T22:18:46.537Z,3.53
2018-12-09T22:21:16.507Z,2.63
2018-12-09T22:23:45.164Z,3.37
2018-12-09T22:26:15.594Z,4.83
2018-12-09T22:28:44.961Z,2.27
2018-12-09T22:31:14.262Z,4.17
2018-12-09T22:33:45.677Z,6.13
2018-12-09T22:36:16.494Z,4.63
2018-12-09T22:38:44.826Z,5.57
2018-12-09T22:41:13.236Z,5.90
2018-12-09T22:43:42.579Z,6.53
2018-12-09T22:46:11.025Z,5.57
2018-12-09T22:48:40.605Z,5.20
2018-12-09T22:51:09.913Z,6.30
2018-12-09T22:53:40.049Z,5.47
2018-12-09T22:56:09.386Z,6.10
2018-12-09T22:58:38.030Z,3.70
2018-12-09T23:01:13.081Z,5.57
2018-12-09T23:03:47.848Z,5.40
2018-12-09T23:06:25.980Z,4.97
2018-12-09T23:08:54.339Z,5.13
2018-12-09T23:11:26.574Z,4.90
2018-12-09T23:13:54.984Z,6.50
2018-12-09T23:16:27.845Z,4.83
2018-12-09T23:18:57.157Z,6.03
2018-12-09T23:21:26.465Z,7.93
2018-12-09T23:23:56.826Z,5.33
2018-12-09T23:26:27.242Z,4.07
2018-12-09T23:28:55.645Z,4.20
2018-12-09T23:31:33.735Z,3.33
2018-12-09T23:34:06.115Z,3.90
2018-12-09T23:36:34.502Z,3.97
2018-12-09T23:39:07.096Z,4.37
2018-12-09T23:41:38.514Z,4.37
2018-12-09T23:44:14.366Z,3.37
2018-12-09T23:46:57.283Z,4.60
2018-12-09T23:49:26.683Z,2.33
2018-12-09T23:51:58.110Z,2.53
2018-12-09T23:54:37.818Z,2.10
2018-12-09T23:57:10.143Z,1.43
2018-12-09T23:59:40.475Z,3.80
